createdAt,value
2018-05-03T00:00:24.313Z,11.30
2018-05-03T00:02:51.823Z,11.30
2018-05-03T00:05:19.350Z,11.30
2018-05-03T00:07:46.927Z,11.30
2018-05-03T00:10:14.462Z,11.30
2018-05-03T00:12:41.975Z,11.20
2018-05-03T00:15:09.543Z,11.20
2018-05-03T00:17:37.900Z,11.20
2018-05-03T00:20:05.418Z,11.20
2018-05-03T00:22:33.014Z,11.20
2018-05-03T00:25:00.510Z,11.20
2018-05-03T00:27:28.033Z,11.10
2018-05-03T00:29:55.554Z,11.10
2018-05-03T00:32:23.080Z,11.10
2018-05-03T00:34:50.585Z,11.20
2018-05-03T00:37:21.412Z,11.20
2018-05-03T00:39:48.972Z,11.10
2018-05-03T00:42:16.481Z,11.10
2018-05-03T00:44:44.106Z,11.10
2018-05-03T00:47:11.639Z,11.20
2018-05-03T00:49:39.157Z,11.20
2018-05-03T00:52:07.433Z,11.20
2018-05-03T00:54:47.578Z,11.20
2018-05-03T00:57:15.134Z,11.20
2018-05-03T00:59:42.682Z,11.20
2018-05-03T01:02:10.189Z,11.10
2018-05-03T01:04:37.697Z,11.10
2018-05-03T01:07:05.210Z,11.20
2018-05-03T01:09:32.712Z,11.20
2018-05-03T01:12:00.204Z,11.30
2018-05-03T01:14:27.744Z,11.20
2018-05-03T01:16:55.222Z,11.20
2018-05-03T01:19:22.723Z,11.20
2018-05-03T01:21:50.252Z,11.20
2018-05-03T01:24:17.728Z,11.10
2018-05-03T01:26:45.215Z,11.10
2018-05-03T01:29:12.710Z,11.20
2018-05-03T01:31:40.234Z,11.20
2018-05-03T01:34:08.036Z,11.10
2018-05-03T01:36:35.561Z,11.10
2018-05-03T01:39:03.080Z,11.10
2018-05-03T01:41:30.596Z,11.10
2018-05-03T01:43:58.865Z,11.10
2018-05-03T01:46:27.191Z,11.10
2018-05-03T01:48:54.767Z,11.10
2018-05-03T01:51:22.286Z,11.10
2018-05-03T01:53:49.826Z,11.10
2018-05-03T01:56:18.109Z,11.00
2018-05-03T01:58:45.625Z,11.00
2018-05-03T02:01:13.138Z,11.00
2018-05-03T02:03:41.049Z,11.00
2018-05-03T02:06:08.538Z,11.00
2018-05-03T02:08:36.870Z,11.00
2018-05-03T02:11:04.367Z,11.00
2018-05-03T02:13:31.874Z,11.00
2018-05-03T02:15:59.453Z,11.10
2018-05-03T02:18:26.981Z,11.00
2018-05-03T02:20:54.471Z,11.00
2018-05-03T02:23:21.985Z,11.00
2018-05-03T02:25:49.519Z,10.90
2018-05-03T02:28:17.789Z,11.10
2018-05-03T02:30:46.044Z,11.10
2018-05-03T02:33:13.556Z,11.10
2018-05-03T02:35:41.049Z,11.10
2018-05-03T02:38:08.556Z,11.10
2018-05-03T02:40:36.079Z,11.10
2018-05-03T02:43:03.588Z,11.10
2018-05-03T02:45:31.089Z,11.00
2018-05-03T02:47:58.585Z,11.10
2018-05-03T02:50:26.089Z,11.00
2018-05-03T02:52:53.625Z,11.00
2018-05-03T02:55:21.162Z,10.90
2018-05-03T02:58:06.326Z,10.90
2018-05-03T03:00:52.169Z,10.90
2018-05-03T03:03:37.426Z,10.90
2018-05-03T03:06:16.851Z,10.80
2018-05-03T03:12:25.217Z,10.90
2018-05-03T03:15:10.400Z,10.80
2018-05-03T03:17:55.539Z,10.70
2018-05-03T03:20:54.377Z,10.70
2018-05-03T03:23:39.458Z,10.70
2018-05-03T03:29:35.370Z,10.60
2018-05-03T03:32:24.483Z,10.80
2018-05-03T03:35:03.730Z,10.70
2018-05-03T03:37:43.891Z,10.70
2018-05-03T03:40:25.231Z,10.70
2018-05-03T03:45:55.249Z,10.70
2018-05-03T03:48:22.762Z,10.70
2018-05-03T03:50:50.264Z,10.60
2018-05-03T03:53:17.838Z,10.60
2018-05-03T03:55:46.809Z,10.70
2018-05-03T03:58:14.321Z,10.70
2018-05-03T04:00:41.839Z,10.70
2018-05-03T04:03:09.344Z,10.70
2018-05-03T04:05:36.910Z,10.60
2018-05-03T04:08:04.401Z,10.60
2018-05-03T04:10:31.899Z,10.60
2018-05-03T04:12:59.405Z,10.60
2018-05-03T04:15:26.920Z,10.50
2018-05-03T04:18:11.980Z,10.60
2018-05-03T04:20:51.322Z,10.60
2018-05-03T04:23:31.008Z,10.60
2018-05-03T04:26:02.051Z,10.60
2018-05-03T04:28:29.529Z,10.70
2018-05-03T04:30:57.850Z,10.70
2018-05-03T04:33:25.369Z,10.70
2018-05-03T04:35:53.625Z,10.80
2018-05-03T04:38:21.146Z,10.80
2018-05-03T04:40:48.698Z,10.90
2018-05-03T04:43:16.354Z,10.90
2018-05-03T04:45:43.852Z,10.90
2018-05-03T04:48:11.365Z,10.90
2018-05-03T04:50:38.894Z,10.90
2018-05-03T04:53:08.021Z,10.90
2018-05-03T04:55:35.615Z,10.90
2018-05-03T04:58:03.166Z,11.00
2018-05-03T05:00:30.670Z,11.00
2018-05-03T05:02:59.460Z,10.90
2018-05-03T05:05:27.774Z,11.00
2018-05-03T05:07:55.289Z,11.00
2018-05-03T05:10:23.630Z,11.00
2018-05-03T05:12:51.106Z,11.00
2018-05-03T05:15:18.646Z,11.00
2018-05-03T05:17:46.140Z,11.00
2018-05-03T05:20:14.540Z,11.00
2018-05-03T05:22:42.073Z,11.00
2018-05-03T05:25:10.336Z,11.10
2018-05-03T05:27:37.846Z,11.10
2018-05-03T05:30:05.454Z,11.10
2018-05-03T05:32:33.843Z,11.20
2018-05-03T05:35:01.368Z,11.20
2018-05-03T05:37:28.863Z,11.20
2018-05-03T05:39:57.141Z,11.20
2018-05-03T05:42:25.449Z,11.30
2018-05-03T05:44:52.947Z,11.30
2018-05-03T05:47:20.454Z,11.30
2018-05-03T05:49:47.965Z,11.30
2018-05-03T05:52:15.448Z,11.40
2018-05-03T05:54:42.949Z,11.50
2018-05-03T05:57:10.465Z,11.50
2018-05-03T05:59:38.728Z,11.60
2018-05-03T06:02:06.261Z,11.60
2018-05-03T06:04:33.776Z,11.60
2018-05-03T06:07:01.273Z,11.60
2018-05-03T06:09:28.768Z,11.60
2018-05-03T06:11:57.014Z,11.70
2018-05-03T06:14:25.281Z,11.70
2018-05-03T06:16:52.862Z,11.70
2018-05-03T06:19:20.385Z,11.80
2018-05-03T06:21:47.883Z,11.70
2018-05-03T06:24:15.403Z,11.80
2018-05-03T06:26:42.931Z,11.80
2018-05-03T06:29:10.417Z,11.80
2018-05-03T06:31:38.635Z,11.90
2018-05-03T06:34:06.893Z,12.00
2018-05-03T06:36:34.386Z,12.00
2018-05-03T06:39:02.757Z,12.10
2018-05-03T06:41:31.030Z,12.20
2018-05-03T06:43:59.312Z,12.30
2018-05-03T06:46:27.573Z,12.30
2018-05-03T06:48:55.861Z,12.30
2018-05-03T06:51:24.148Z,12.40
2018-05-03T06:53:51.659Z,12.40
2018-05-03T06:56:19.946Z,12.40
2018-05-03T06:58:47.479Z,12.40
2018-05-03T07:01:15.006Z,12.50
2018-05-03T07:03:43.034Z,12.50
2018-05-03T07:06:10.547Z,12.60
2018-05-03T07:08:38.055Z,12.70
2018-05-03T07:11:06.334Z,12.80
2018-05-03T07:13:34.591Z,12.90
2018-05-03T07:16:02.886Z,13.10
2018-05-03T07:18:31.185Z,13.10
2018-05-03T07:20:58.719Z,13.10
2018-05-03T07:23:27.016Z,13.10
2018-05-03T07:25:54.562Z,13.10
2018-05-03T07:28:22.839Z,13.20
2018-05-03T07:30:50.343Z,13.20
2018-05-03T07:33:17.845Z,13.30
2018-05-03T07:35:46.115Z,13.30
2018-05-03T07:38:14.443Z,13.40
2018-05-03T07:40:41.996Z,13.40
2018-05-03T07:43:09.481Z,13.50
2018-05-03T07:45:37.274Z,13.50
2018-05-03T07:48:05.552Z,13.50
2018-05-03T07:50:33.067Z,13.50
2018-05-03T07:53:00.637Z,13.60
2018-05-03T07:55:28.144Z,13.50
2018-05-03T07:57:56.417Z,13.20
2018-05-03T08:00:24.706Z,13.20
2018-05-03T08:02:52.219Z,13.20
2018-05-03T08:05:19.732Z,13.20
2018-05-03T08:07:47.268Z,13.10
2018-05-03T08:10:14.816Z,13.30
2018-05-03T08:12:43.142Z,13.30
2018-05-03T08:15:10.634Z,13.30
2018-05-03T08:17:38.169Z,13.30
2018-05-03T08:20:05.739Z,13.20
2018-05-03T08:22:34.034Z,13.30
2018-05-03T08:25:01.524Z,13.30
2018-05-03T08:27:29.058Z,13.30
2018-05-03T08:29:56.591Z,13.40
2018-05-03T08:32:24.099Z,13.60
2018-05-03T08:34:51.612Z,13.70
2018-05-03T08:37:19.152Z,13.70
2018-05-03T08:39:47.412Z,13.70
2018-05-03T08:42:14.917Z,13.60
2018-05-03T08:44:42.416Z,13.70
2018-05-03T08:47:09.930Z,13.70
2018-05-03T08:49:37.463Z,13.60
2018-05-03T08:52:04.959Z,13.70
2018-05-03T08:54:33.225Z,13.60
2018-05-03T08:57:01.524Z,13.60
2018-05-03T08:59:29.049Z,13.60
2018-05-03T09:01:56.596Z,13.50
2018-05-03T09:04:24.069Z,13.60
2018-05-03T09:06:51.670Z,13.60
2018-05-03T09:09:19.154Z,13.60
2018-05-03T09:11:46.692Z,13.50
2018-05-03T09:14:14.187Z,13.60
2018-05-03T09:16:41.736Z,13.70
2018-05-03T09:19:09.261Z,13.70
2018-05-03T09:21:36.760Z,13.70
2018-05-03T09:24:04.265Z,13.60
2018-05-03T09:26:31.779Z,13.60
2018-05-03T09:29:00.091Z,13.60
2018-05-03T09:31:28.366Z,13.80
2018-05-03T09:33:56.655Z,13.90
2018-05-03T09:36:25.032Z,13.90
2018-05-03T09:38:52.554Z,13.90
2018-05-03T09:41:20.079Z,14.00
2018-05-03T09:43:47.573Z,14.00
2018-05-03T09:46:15.092Z,14.10
2018-05-03T09:48:42.620Z,14.20
2018-05-03T09:51:10.138Z,14.40
2018-05-03T09:53:37.682Z,14.50
2018-05-03T09:56:05.185Z,14.50
2018-05-03T09:58:32.836Z,14.60
2018-05-03T10:01:01.096Z,14.70
2018-05-03T10:03:28.608Z,14.70
2018-05-03T10:05:56.582Z,14.70
2018-05-03T10:08:24.130Z,14.80
2018-05-03T10:10:51.621Z,15.00
2018-05-03T10:13:19.180Z,15.00
2018-05-03T10:15:46.661Z,15.00
2018-05-03T10:18:14.971Z,15.40
2018-05-03T10:20:43.280Z,15.40
2018-05-03T10:23:10.824Z,15.50
2018-05-03T10:25:38.351Z,15.40
2018-05-03T10:28:05.849Z,15.40
2018-05-03T10:30:33.379Z,15.40
2018-05-03T10:33:00.986Z,15.40
2018-05-03T10:35:28.481Z,15.20
2018-05-03T10:37:56.756Z,15.30
2018-05-03T10:40:25.021Z,15.30
2018-05-03T10:42:53.275Z,15.40
2018-05-03T10:45:20.777Z,15.40
2018-05-03T10:47:48.301Z,15.30
2018-05-03T10:50:15.919Z,15.20
2018-05-03T10:52:43.513Z,15.20
2018-05-03T10:55:11.044Z,15.40
2018-05-03T10:57:38.543Z,15.50
2018-05-03T11:00:06.828Z,15.70
2018-05-03T11:02:34.362Z,15.70
2018-05-03T11:05:01.883Z,15.70
2018-05-03T11:07:29.423Z,15.60
2018-05-03T11:09:56.921Z,15.60
2018-05-03T11:12:24.429Z,15.50
2018-05-03T11:14:52.072Z,15.70
2018-05-03T11:17:20.350Z,15.90
2018-05-03T11:19:48.619Z,15.80
2018-05-03T11:22:16.136Z,15.80
2018-05-03T11:24:43.630Z,16.00
2018-05-03T11:27:11.195Z,16.20
2018-05-03T11:29:39.456Z,16.80
2018-05-03T11:32:06.950Z,16.70
2018-05-03T11:34:34.505Z,17.00
2018-05-03T11:37:02.065Z,16.70
2018-05-03T11:39:29.577Z,17.00
2018-05-03T11:41:57.165Z,17.10
2018-05-03T11:44:25.429Z,17.00
2018-05-03T11:46:52.936Z,17.00
2018-05-03T11:49:20.445Z,17.10
2018-05-03T11:51:47.949Z,17.10
2018-05-03T11:54:15.462Z,17.00
2018-05-03T11:56:43.819Z,16.80
2018-05-03T11:59:11.435Z,16.80
2018-05-03T12:01:38.881Z,16.70
2018-05-03T12:04:06.376Z,16.60
2018-05-03T12:06:33.880Z,16.80
2018-05-03T12:09:02.223Z,16.80
2018-05-03T12:11:30.539Z,17.00
2018-05-03T12:13:58.141Z,16.90
2018-05-03T12:16:25.656Z,17.00
2018-05-03T12:18:53.923Z,17.10
2018-05-03T12:21:22.176Z,17.10
2018-05-03T12:23:49.757Z,17.10
2018-05-03T12:26:17.264Z,16.90
2018-05-03T12:28:44.793Z,16.70
2018-05-03T12:31:12.297Z,16.50
2018-05-03T12:33:39.799Z,16.40
2018-05-03T12:36:07.295Z,16.40
2018-05-03T12:38:34.850Z,16.30
2018-05-03T12:41:02.347Z,16.40
2018-05-03T12:43:29.835Z,16.60
2018-05-03T12:45:58.105Z,16.90
2018-05-03T12:48:25.745Z,16.90
2018-05-03T12:50:53.226Z,16.90
2018-05-03T12:53:20.721Z,17.10
2018-05-03T12:55:48.304Z,17.00
2018-05-03T12:58:15.796Z,17.00
2018-05-03T13:00:44.133Z,17.00
2018-05-03T13:03:11.588Z,17.00
2018-05-03T13:05:39.107Z,16.90
2018-05-03T13:08:06.605Z,16.60
2018-05-03T13:10:34.171Z,16.60
2018-05-03T13:13:01.671Z,16.60
2018-05-03T13:15:29.187Z,16.80
2018-05-03T13:17:56.733Z,16.80
2018-05-03T13:20:24.221Z,16.90
2018-05-03T13:22:52.510Z,17.10
2018-05-03T13:25:20.778Z,17.20
2018-05-03T13:27:48.363Z,17.20
2018-05-03T13:30:15.857Z,17.40
2018-05-03T13:32:43.379Z,17.60
2018-05-03T13:35:10.893Z,17.50
2018-05-03T13:37:38.407Z,17.70
2018-05-03T13:40:05.886Z,17.80
2018-05-03T13:42:33.452Z,17.70
2018-05-03T13:45:00.979Z,17.70
2018-05-03T13:47:28.548Z,17.80
2018-05-03T13:49:56.048Z,17.60
2018-05-03T13:52:23.543Z,17.60
2018-05-03T13:54:51.056Z,17.80
2018-05-03T13:57:18.548Z,17.80
2018-05-03T13:59:46.062Z,17.80
2018-05-03T14:02:13.570Z,18.00
2018-05-03T14:04:41.052Z,18.30
2018-05-03T14:07:27.896Z,18.50
2018-05-03T14:09:55.395Z,18.90
2018-05-03T14:12:22.921Z,19.20
2018-05-03T14:14:50.428Z,19.00
2018-05-03T14:17:18.604Z,18.90
2018-05-03T14:19:46.155Z,18.80
2018-05-03T14:22:13.646Z,18.90
2018-05-03T14:24:42.183Z,18.70
2018-05-03T14:27:09.781Z,18.50
2018-05-03T14:29:37.292Z,18.20
2018-05-03T14:32:04.851Z,18.00
2018-05-03T14:34:32.349Z,17.80
2018-05-03T14:36:59.980Z,17.60
2018-05-03T14:39:27.568Z,17.70
2018-05-03T14:41:55.079Z,17.60
2018-05-03T14:44:23.360Z,18.00
2018-05-03T14:46:51.648Z,18.10
2018-05-03T14:49:19.138Z,18.10
2018-05-03T14:51:46.637Z,18.20
2018-05-03T14:54:14.891Z,17.90
2018-05-03T14:56:42.402Z,17.90
2018-05-03T14:59:10.005Z,17.80
2018-05-03T15:01:37.590Z,17.90
2018-05-03T15:04:05.990Z,18.40
2018-05-03T15:06:33.738Z,18.40
2018-05-03T15:09:03.562Z,18.40
2018-05-03T15:11:31.167Z,18.40
2018-05-03T15:13:58.986Z,18.30
2018-05-03T15:16:26.705Z,18.10
2018-05-03T15:18:54.529Z,17.80
2018-05-03T15:21:22.240Z,17.60
2018-05-03T15:23:49.925Z,17.50
2018-05-03T15:26:17.863Z,17.50
2018-05-03T15:28:45.531Z,17.50
2018-05-03T15:31:13.071Z,17.40
2018-05-03T15:33:40.703Z,17.30
2018-05-03T15:36:08.592Z,17.40
2018-05-03T15:38:36.354Z,17.50
2018-05-03T15:41:04.195Z,17.60
2018-05-03T15:43:32.089Z,17.70
2018-05-03T15:45:59.665Z,17.70
2018-05-03T15:48:27.226Z,17.80
2018-05-03T15:50:56.661Z,17.80
2018-05-03T15:53:24.171Z,17.80
2018-05-03T15:55:51.945Z,17.70
2018-05-03T15:58:19.625Z,17.60
2018-05-03T16:03:49.793Z,17.70
2018-05-03T16:06:17.597Z,17.50
2018-05-03T16:08:45.163Z,17.40
2018-05-03T16:11:12.683Z,17.50
2018-05-03T16:13:40.188Z,17.50
2018-05-03T16:16:07.737Z,17.40
2018-05-03T16:18:37.048Z,17.40
2018-05-03T16:21:05.108Z,17.40
2018-05-03T16:23:32.601Z,17.30
2018-05-03T16:26:00.905Z,17.30
2018-05-03T16:28:28.441Z,17.30
2018-05-03T16:30:55.956Z,17.40
2018-05-03T16:33:23.492Z,17.40
2018-05-03T16:35:51.187Z,17.30
2018-05-03T16:38:18.776Z,17.10
2018-05-03T16:40:46.651Z,17.10
2018-05-03T16:43:14.567Z,17.10
2018-05-03T16:45:42.204Z,17.00
2018-05-03T16:48:10.642Z,17.00
2018-05-03T16:50:38.909Z,17.10
2018-05-03T16:53:06.686Z,17.10
2018-05-03T16:55:35.151Z,17.10
2018-05-03T16:58:03.457Z,17.10
2018-05-03T17:00:31.029Z,17.10
2018-05-03T17:02:58.608Z,17.20
2018-05-03T17:05:26.125Z,17.20
2018-05-03T17:07:54.374Z,17.30
2018-05-03T17:10:21.902Z,17.30
2018-05-03T17:12:49.422Z,17.30
2018-05-03T17:15:16.959Z,17.30
2018-05-03T17:17:45.225Z,17.40
2018-05-03T17:20:12.752Z,17.30
2018-05-03T17:22:40.250Z,17.40
2018-05-03T17:25:08.551Z,17.40
2018-05-03T17:27:36.042Z,17.40
2018-05-03T17:30:03.523Z,17.30
2018-05-03T17:32:31.046Z,17.30
2018-05-03T17:34:58.559Z,17.10
2018-05-03T17:37:26.830Z,16.80
2018-05-03T17:39:55.086Z,16.70
2018-05-03T17:42:22.638Z,16.60
2018-05-03T17:44:50.150Z,16.60
2018-05-03T17:47:17.659Z,16.50
2018-05-03T17:49:45.197Z,16.50
2018-05-03T17:52:12.788Z,16.50
2018-05-03T17:54:40.303Z,16.20
2018-05-03T17:57:07.794Z,16.20
2018-05-03T17:59:35.299Z,16.10
2018-05-03T18:02:02.814Z,16.10
2018-05-03T18:04:30.442Z,16.10
2018-05-03T18:06:58.789Z,16.00
2018-05-03T18:09:26.309Z,16.00
2018-05-03T18:11:53.805Z,15.80
2018-05-03T18:14:21.357Z,15.70
2018-05-03T18:16:48.876Z,15.60
2018-05-03T18:19:16.380Z,15.60
2018-05-03T18:21:43.960Z,15.50
2018-05-03T18:24:11.473Z,15.50
2018-05-03T18:26:38.998Z,15.40
2018-05-03T18:29:06.565Z,15.40
2018-05-03T18:31:34.170Z,15.40
2018-05-03T18:34:01.712Z,15.30
2018-05-03T18:36:29.983Z,15.20
2018-05-03T18:38:57.489Z,15.20
2018-05-03T18:41:25.013Z,15.20
2018-05-03T18:43:53.299Z,15.10
2018-05-03T18:46:20.831Z,15.10
2018-05-03T18:48:49.114Z,15.20
2018-05-03T18:51:17.726Z,15.20
2018-05-03T18:53:48.165Z,15.10
2018-05-03T18:56:16.369Z,15.00
2018-05-03T18:58:43.861Z,15.00
2018-05-03T19:01:13.300Z,14.90
2018-05-03T19:03:41.615Z,14.80
2018-05-03T19:06:09.121Z,14.80
2018-05-03T19:08:36.675Z,14.70
2018-05-03T19:11:04.228Z,14.70
2018-05-03T19:13:31.772Z,14.70
2018-05-03T19:15:59.382Z,14.70
2018-05-03T19:18:27.125Z,14.60
2018-05-03T19:20:54.680Z,14.50
2018-05-03T19:23:22.396Z,14.50
2018-05-03T19:25:50.000Z,14.40
2018-05-03T19:28:17.531Z,14.40
2018-05-03T19:30:45.176Z,14.30
2018-05-03T19:33:12.704Z,14.40
2018-05-03T19:35:40.308Z,14.30
2018-05-03T19:38:08.188Z,14.30
2018-05-03T19:40:35.885Z,14.30
2018-05-03T19:43:03.508Z,14.20
2018-05-03T19:45:31.998Z,14.20
2018-05-03T19:47:59.508Z,14.20
2018-05-03T19:50:27.127Z,14.20
2018-05-03T19:52:55.016Z,14.20
2018-05-03T19:55:22.916Z,14.20
2018-05-03T19:57:51.299Z,14.10
2018-05-03T20:00:19.603Z,14.20
2018-05-03T20:02:47.419Z,14.10
2018-05-03T20:05:14.952Z,14.10
2018-05-03T20:07:42.548Z,14.00
2018-05-03T20:10:10.085Z,13.90
2018-05-03T20:12:37.573Z,14.00
2018-05-03T20:15:05.167Z,14.10
2018-05-03T20:17:32.847Z,14.00
2018-05-03T20:20:01.118Z,14.00
2018-05-03T20:22:28.741Z,14.00
2018-05-03T20:24:56.320Z,13.90
2018-05-03T20:27:23.850Z,14.00
2018-05-03T20:29:52.121Z,13.90
2018-05-03T20:32:20.396Z,14.00
2018-05-03T20:34:48.698Z,13.90
2018-05-03T20:37:16.298Z,13.90
2018-05-03T20:39:43.884Z,13.90
2018-05-03T20:42:11.395Z,13.80
2018-05-03T20:44:38.928Z,13.90
2018-05-03T20:47:06.442Z,14.00
2018-05-03T20:49:33.966Z,13.90
2018-05-03T20:52:01.511Z,13.90
2018-05-03T20:54:29.008Z,13.90
2018-05-03T20:56:56.570Z,13.90
2018-05-03T20:59:24.431Z,13.90
2018-05-03T21:01:52.061Z,13.80
2018-05-03T21:04:19.640Z,13.80
2018-05-03T21:06:47.253Z,13.80
2018-05-03T21:09:16.704Z,13.80
2018-05-03T21:11:44.245Z,13.80
2018-05-03T21:14:11.805Z,13.80
2018-05-03T21:16:39.331Z,13.80
2018-05-03T21:19:06.899Z,13.90
2018-05-03T21:21:34.693Z,14.00
2018-05-03T21:24:02.198Z,13.90
2018-05-03T21:26:29.696Z,13.80
2018-05-03T21:28:57.249Z,13.70
2018-05-03T21:31:24.804Z,13.60
2018-05-03T21:33:52.356Z,13.70
2018-05-03T21:36:19.918Z,13.60
2018-05-03T21:38:47.441Z,13.60
2018-05-03T21:41:14.933Z,13.60
2018-05-03T21:43:42.582Z,13.70
2018-05-03T21:46:10.122Z,13.70
2018-05-03T21:48:37.735Z,13.60
2018-05-03T21:51:05.238Z,13.60
2018-05-03T21:53:33.563Z,13.70
2018-05-03T21:56:01.049Z,13.60
2018-05-03T21:58:28.795Z,13.70
2018-05-03T22:00:56.294Z,13.60
2018-05-03T22:03:23.805Z,13.60
2018-05-03T22:05:51.321Z,13.60
2018-05-03T22:08:18.950Z,13.70
2018-05-03T22:10:47.263Z,13.50
2018-05-03T22:13:14.794Z,13.50
2018-05-03T22:15:42.286Z,13.50
2018-05-03T22:18:09.869Z,13.50
2018-05-03T22:20:37.456Z,13.40
2018-05-03T22:23:04.953Z,13.40
2018-05-03T22:25:33.218Z,13.40
2018-05-03T22:28:01.662Z,13.40
2018-05-03T22:30:29.276Z,13.40
2018-05-03T22:32:56.816Z,13.40
2018-05-03T22:35:25.090Z,13.30
2018-05-03T22:37:53.353Z,13.20
2018-05-03T22:40:20.914Z,13.20
2018-05-03T22:42:48.446Z,13.20
2018-05-03T22:45:15.954Z,13.10
2018-05-03T22:47:44.254Z,13.10
2018-05-03T22:50:11.741Z,13.00
2018-05-03T22:52:39.261Z,13.10
2018-05-03T22:55:06.804Z,13.00
2018-05-03T22:57:34.319Z,13.10
2018-05-03T23:00:01.826Z,13.00
2018-05-03T23:02:29.370Z,13.10
2018-05-03T23:04:57.623Z,13.10
2018-05-03T23:07:25.179Z,13.10
2018-05-03T23:09:52.717Z,13.00
2018-05-03T23:12:20.239Z,13.10
2018-05-03T23:14:47.723Z,13.10
2018-05-03T23:17:15.321Z,13.20
2018-05-03T23:19:42.812Z,13.10
2018-05-03T23:22:10.334Z,13.10
2018-05-03T23:24:37.845Z,13.10
2018-05-03T23:27:05.359Z,13.10
2018-05-03T23:29:33.014Z,13.10
2018-05-03T23:32:00.523Z,13.10
2018-05-03T23:34:28.033Z,13.10
2018-05-03T23:36:56.312Z,13.10
2018-05-03T23:39:24.591Z,13.10
2018-05-03T23:41:52.834Z,13.10
2018-05-03T23:44:20.339Z,13.00
2018-05-03T23:46:47.830Z,12.90
2018-05-03T23:49:15.354Z,12.90
2018-05-03T23:51:42.858Z,12.80
2018-05-03T23:54:10.481Z,12.90
2018-05-03T23:56:38.137Z,12.80
2018-05-03T23:59:06.419Z,12.90
